<?xml version="1.0" encoding="UTF-8" standalone="no" ?>
<gpx xmlns="http://www.topografix.com/GPX/1/1" xmlns:xsi="http://www.w3.org/2001/XMLSchema-instance" xsi:schemaLocation="http://www.topografix.com/GPX/1/1 http://www.topografix.com/GPX/1/1/gpx.xsd" version="1.1" creator="VisuGPX - https://www.visugpx.com">
  <metadata>
    <name>Peyssier Sigoyer J2</name>
    <desc><![CDATA[Retour vers Sigoyer par Lardier ]]></desc>
  </metadata>
  <trk>
    <name><![CDATA[OR-6599990--Barcillonnette:Peyssier Sigoyer]]></name>
    <trkseg>
      <trkpt lat="44.42776" lon="5.87354">
        <ele>1292</ele>
        <time>2016-09-19T09:47:42Z</time>
      </trkpt>
      <trkpt lat="44.43095" lon="5.87483">
        <ele>1298</ele>
        <time>2016-09-19T09:49:42Z</time>
      </trkpt>
      <trkpt lat="44.43049" lon="5.87599">
        <ele>1297</ele>
        <time>2016-09-19T09:51:42Z</time>
      </trkpt>
      <trkpt lat="44.43022" lon="5.87792">
        <ele>1291</ele>
        <time>2016-09-19T09:53:42Z</time>
      </trkpt>
      <trkpt lat="44.42976" lon="5.87934">
        <ele>1296</ele>
        <time>2016-09-19T09:55:42Z</time>
      </trkpt>
      <trkpt lat="44.42899" lon="5.88007">
        <ele>1289</ele>
        <time>2016-09-19T09:57:42Z</time>
      </trkpt>
      <trkpt lat="44.42856" lon="5.88264">
        <ele>1312</ele>
        <time>2016-09-19T09:59:42Z</time>
      </trkpt>
      <trkpt lat="44.42663" lon="5.88603">
        <ele>1334</ele>
        <time>2016-09-19T10:01:42Z</time>
      </trkpt>
      <trkpt lat="44.42507" lon="5.88916">
        <ele>1355</ele>
        <time>2016-09-19T10:03:42Z</time>
      </trkpt>
      <trkpt lat="44.42452" lon="5.88964">
        <ele>1358</ele>
        <time>2016-09-19T10:05:42Z</time>
      </trkpt>
      <trkpt lat="44.42384" lon="5.89191">
        <ele>1392</ele>
        <time>2016-09-19T10:07:42Z</time>
      </trkpt>
      <trkpt lat="44.42295" lon="5.89367">
        <ele>1409</ele>
        <time>2016-09-19T10:09:42Z</time>
      </trkpt>
      <trkpt lat="44.42216" lon="5.89479">
        <ele>1415</ele>
        <time>2016-09-19T10:11:42Z</time>
      </trkpt>
      <trkpt lat="44.42121" lon="5.89453">
        <ele>1412</ele>
        <time>2016-09-19T10:13:42Z</time>
      </trkpt>
      <trkpt lat="44.42065" lon="5.89328">
        <ele>1426</ele>
        <time>2016-09-19T10:15:42Z</time>
      </trkpt>
      <trkpt lat="44.41998" lon="5.8932">
        <ele>1432</ele>
        <time>2016-09-19T10:17:42Z</time>
      </trkpt>
      <trkpt lat="44.41958" lon="5.89388">
        <ele>1425</ele>
        <time>2016-09-19T10:19:42Z</time>
      </trkpt>
      <trkpt lat="44.41869" lon="5.89496">
        <ele>1422</ele>
        <time>2016-09-19T10:21:42Z</time>
      </trkpt>
      <trkpt lat="44.41799" lon="5.89552">
        <ele>1423</ele>
        <time>2016-09-19T10:23:42Z</time>
      </trkpt>
      <trkpt lat="44.41759" lon="5.89646">
        <ele>1419</ele>
        <time>2016-09-19T10:25:42Z</time>
      </trkpt>
      <trkpt lat="44.41646" lon="5.89783">
        <ele>1403</ele>
        <time>2016-09-19T10:27:42Z</time>
      </trkpt>
      <trkpt lat="44.41406" lon="5.89955">
        <ele>1377</ele>
        <time>2016-09-19T10:29:42Z</time>
      </trkpt>
      <trkpt lat="44.41278" lon="5.89899">
        <ele>1327</ele>
        <time>2016-09-19T10:31:42Z</time>
      </trkpt>
      <trkpt lat="44.41042" lon="5.89934">
        <ele>1262</ele>
        <time>2016-09-19T10:33:42Z</time>
      </trkpt>
      <trkpt lat="44.41066" lon="5.90054">
        <ele>1268</ele>
        <time>2016-09-19T10:35:42Z</time>
      </trkpt>
      <trkpt lat="44.41035" lon="5.9017">
        <ele>1271</ele>
        <time>2016-09-19T10:37:42Z</time>
      </trkpt>
      <trkpt lat="44.41039" lon="5.90303">
        <ele>1288</ele>
        <time>2016-09-19T10:39:42Z</time>
      </trkpt>
      <trkpt lat="44.40812" lon="5.905">
        <ele>1293</ele>
        <time>2016-09-19T10:41:42Z</time>
      </trkpt>
      <trkpt lat="44.40852" lon="5.90822">
        <ele>1308</ele>
        <time>2016-09-19T10:43:42Z</time>
      </trkpt>
      <trkpt lat="44.40989" lon="5.91157">
        <ele>1346</ele>
        <time>2016-09-19T10:45:42Z</time>
      </trkpt>
      <trkpt lat="44.41035" lon="5.91092">
        <ele>1342</ele>
        <time>2016-09-19T10:47:42Z</time>
      </trkpt>
      <trkpt lat="44.41186" lon="5.90757">
        <ele>1339</ele>
        <time>2016-09-19T10:49:42Z</time>
      </trkpt>
      <trkpt lat="44.4129" lon="5.90723">
        <ele>1308</ele>
        <time>2016-09-19T10:51:42Z</time>
      </trkpt>
      <trkpt lat="44.41354" lon="5.90612">
        <ele>1310</ele>
        <time>2016-09-19T10:53:42Z</time>
      </trkpt>
      <trkpt lat="44.41508" lon="5.90496">
        <ele>1288</ele>
        <time>2016-09-19T10:55:42Z</time>
      </trkpt>
      <trkpt lat="44.41318" lon="5.90899">
        <ele>1254</ele>
        <time>2016-09-19T10:57:42Z</time>
      </trkpt>
      <trkpt lat="44.41606" lon="5.90599">
        <ele>1237</ele>
        <time>2016-09-19T10:59:42Z</time>
      </trkpt>
      <trkpt lat="44.4159" lon="5.90951">
        <ele>1186</ele>
        <time>2016-09-19T11:01:42Z</time>
      </trkpt>
      <trkpt lat="44.41572" lon="5.91088">
        <ele>1167</ele>
        <time>2016-09-19T11:03:42Z</time>
      </trkpt>
      <trkpt lat="44.41612" lon="5.9141">
        <ele>1123</ele>
        <time>2016-09-19T11:05:42Z</time>
      </trkpt>
      <trkpt lat="44.41691" lon="5.91509">
        <ele>1110</ele>
        <time>2016-09-19T11:07:42Z</time>
      </trkpt>
      <trkpt lat="44.41759" lon="5.91496">
        <ele>1129</ele>
        <time>2016-09-19T11:09:42Z</time>
      </trkpt>
      <trkpt lat="44.4179" lon="5.91603">
        <ele>1091</ele>
        <time>2016-09-19T11:11:42Z</time>
      </trkpt>
      <trkpt lat="44.41934" lon="5.91543">
        <ele>1074</ele>
        <time>2016-09-19T11:13:42Z</time>
      </trkpt>
      <trkpt lat="44.42062" lon="5.91242">
        <ele>1073</ele>
        <time>2016-09-19T11:15:42Z</time>
      </trkpt>
      <trkpt lat="44.42136" lon="5.91285">
        <ele>1063</ele>
        <time>2016-09-19T11:17:42Z</time>
      </trkpt>
      <trkpt lat="44.42265" lon="5.91448">
        <ele>1049</ele>
        <time>2016-09-19T11:19:42Z</time>
      </trkpt>
      <trkpt lat="44.42249" lon="5.91569">
        <ele>1012</ele>
        <time>2016-09-19T11:21:42Z</time>
      </trkpt>
      <trkpt lat="44.42341" lon="5.91642">
        <ele>1025</ele>
        <time>2016-09-19T11:23:42Z</time>
      </trkpt>
      <trkpt lat="44.42375" lon="5.91766">
        <ele>1012</ele>
        <time>2016-09-19T11:25:42Z</time>
      </trkpt>
      <trkpt lat="44.42412" lon="5.92018">
        <ele>982</ele>
        <time>2016-09-19T11:27:42Z</time>
      </trkpt>
      <trkpt lat="44.42414" lon="5.92192">
        <ele>960</ele>
        <time>2016-09-19T11:29:42Z</time>
      </trkpt>
      <trkpt lat="44.42691" lon="5.9186">
        <ele>944</ele>
        <time>2016-09-19T11:31:42Z</time>
      </trkpt>
      <trkpt lat="44.42579" lon="5.92169">
        <ele>910</ele>
        <time>2016-09-19T11:33:42Z</time>
      </trkpt>
      <trkpt lat="44.42806" lon="5.9193">
        <ele>876</ele>
        <time>2016-09-19T11:35:42Z</time>
      </trkpt>
      <trkpt lat="44.4274" lon="5.92085">
        <ele>856</ele>
        <time>2016-09-19T11:37:42Z</time>
      </trkpt>
      <trkpt lat="44.42899" lon="5.9193">
        <ele>848</ele>
        <time>2016-09-19T11:39:42Z</time>
      </trkpt>
      <trkpt lat="44.4297" lon="5.91933">
        <ele>836</ele>
        <time>2016-09-19T11:41:42Z</time>
      </trkpt>
      <trkpt lat="44.43001" lon="5.91857">
        <ele>844</ele>
        <time>2016-09-19T11:43:42Z</time>
      </trkpt>
      <trkpt lat="44.43119" lon="5.91924">
        <ele>842</ele>
        <time>2016-09-19T11:45:42Z</time>
      </trkpt>
      <trkpt lat="44.43169" lon="5.91973">
        <ele>840</ele>
        <time>2016-09-19T11:47:42Z</time>
      </trkpt>
      <trkpt lat="44.43286" lon="5.91907">
        <ele>834</ele>
        <time>2016-09-19T11:49:42Z</time>
      </trkpt>
      <trkpt lat="44.43324" lon="5.91956">
        <ele>822</ele>
        <time>2016-09-19T11:51:42Z</time>
      </trkpt>
      <trkpt lat="44.43394" lon="5.91965">
        <ele>820</ele>
        <time>2016-09-19T11:53:42Z</time>
      </trkpt>
      <trkpt lat="44.43439" lon="5.91941">
        <ele>822</ele>
        <time>2016-09-19T11:55:42Z</time>
      </trkpt>
      <trkpt lat="44.43497" lon="5.91933">
        <ele>821</ele>
        <time>2016-09-19T11:57:42Z</time>
      </trkpt>
      <trkpt lat="44.43555" lon="5.91911">
        <ele>823</ele>
        <time>2016-09-19T11:59:42Z</time>
      </trkpt>
      <trkpt lat="44.43623" lon="5.92003">
        <ele>806</ele>
        <time>2016-09-19T12:01:42Z</time>
      </trkpt>
      <trkpt lat="44.43715" lon="5.92016">
        <ele>798</ele>
        <time>2016-09-19T12:03:42Z</time>
      </trkpt>
      <trkpt lat="44.43662" lon="5.92108">
        <ele>788</ele>
        <time>2016-09-19T12:05:42Z</time>
      </trkpt>
      <trkpt lat="44.43578" lon="5.92143">
        <ele>780</ele>
        <time>2016-09-19T12:07:42Z</time>
      </trkpt>
      <trkpt lat="44.43535" lon="5.921">
        <ele>791</ele>
        <time>2016-09-19T12:09:42Z</time>
      </trkpt>
      <trkpt lat="44.43525" lon="5.92156">
        <ele>783</ele>
        <time>2016-09-19T12:11:42Z</time>
      </trkpt>
      <trkpt lat="44.43495" lon="5.92265">
        <ele>760</ele>
        <time>2016-09-19T12:13:42Z</time>
      </trkpt>
      <trkpt lat="44.43485" lon="5.92321">
        <ele>750</ele>
        <time>2016-09-19T12:15:42Z</time>
      </trkpt>
      <trkpt lat="44.43489" lon="5.92366">
        <ele>745</ele>
        <time>2016-09-19T12:17:42Z</time>
      </trkpt>
      <trkpt lat="44.43419" lon="5.92447">
        <ele>739</ele>
        <time>2016-09-19T12:19:42Z</time>
      </trkpt>
      <trkpt lat="44.4339" lon="5.9249">
        <ele>740</ele>
        <time>2016-09-19T12:21:42Z</time>
      </trkpt>
      <trkpt lat="44.43419" lon="5.92546">
        <ele>750</ele>
        <time>2016-09-19T12:23:42Z</time>
      </trkpt>
      <trkpt lat="44.4339" lon="5.92636">
        <ele>762</ele>
        <time>2016-09-19T12:25:42Z</time>
      </trkpt>
      <trkpt lat="44.43316" lon="5.92774">
        <ele>763</ele>
        <time>2016-09-19T12:27:42Z</time>
      </trkpt>
      <trkpt lat="44.43281" lon="5.92956">
        <ele>769</ele>
        <time>2016-09-19T12:29:42Z</time>
      </trkpt>
      <trkpt lat="44.43281" lon="5.93108">
        <ele>778</ele>
        <time>2016-09-19T12:31:42Z</time>
      </trkpt>
      <trkpt lat="44.43309" lon="5.93181">
        <ele>783</ele>
        <time>2016-09-19T12:33:42Z</time>
      </trkpt>
      <trkpt lat="44.43453" lon="5.93171">
        <ele>804</ele>
        <time>2016-09-19T12:35:42Z</time>
      </trkpt>
      <trkpt lat="44.43491" lon="5.93136">
        <ele>810</ele>
        <time>2016-09-19T12:37:42Z</time>
      </trkpt>
      <trkpt lat="44.43469" lon="5.93259">
        <ele>810</ele>
        <time>2016-09-19T12:39:42Z</time>
      </trkpt>
      <trkpt lat="44.43373" lon="5.93353">
        <ele>802</ele>
        <time>2016-09-19T12:41:42Z</time>
      </trkpt>
      <trkpt lat="44.43299" lon="5.93523">
        <ele>802</ele>
        <time>2016-09-19T12:43:42Z</time>
      </trkpt>
      <trkpt lat="44.43217" lon="5.93585">
        <ele>795</ele>
        <time>2016-09-19T12:45:42Z</time>
      </trkpt>
      <trkpt lat="44.43111" lon="5.93692">
        <ele>781</ele>
        <time>2016-09-19T12:47:42Z</time>
      </trkpt>
      <trkpt lat="44.43001" lon="5.9375">
        <ele>769</ele>
        <time>2016-09-19T12:49:42Z</time>
      </trkpt>
      <trkpt lat="44.42971" lon="5.93874">
        <ele>771</ele>
        <time>2016-09-19T12:51:42Z</time>
      </trkpt>
      <trkpt lat="44.42873" lon="5.94093">
        <ele>762</ele>
        <time>2016-09-19T12:53:42Z</time>
      </trkpt>
      <trkpt lat="44.42783" lon="5.94233">
        <ele>750</ele>
        <time>2016-09-19T12:55:42Z</time>
      </trkpt>
      <trkpt lat="44.4272" lon="5.94213">
        <ele>742</ele>
        <time>2016-09-19T12:57:42Z</time>
      </trkpt>
      <trkpt lat="44.42738" lon="5.94304">
        <ele>742</ele>
        <time>2016-09-19T12:59:42Z</time>
      </trkpt>
      <trkpt lat="44.42772" lon="5.94306">
        <ele>748</ele>
        <time>2016-09-19T13:01:42Z</time>
      </trkpt>
      <trkpt lat="44.42763" lon="5.94486">
        <ele>749</ele>
        <time>2016-09-19T13:03:42Z</time>
      </trkpt>
      <trkpt lat="44.42783" lon="5.94585">
        <ele>757</ele>
        <time>2016-09-19T13:05:42Z</time>
      </trkpt>
      <trkpt lat="44.42758" lon="5.94623">
        <ele>753</ele>
        <time>2016-09-19T13:07:42Z</time>
      </trkpt>
      <trkpt lat="44.42748" lon="5.94754">
        <ele>761</ele>
        <time>2016-09-19T13:09:42Z</time>
      </trkpt>
      <trkpt lat="44.42872" lon="5.94797">
        <ele>765</ele>
        <time>2016-09-19T13:11:42Z</time>
      </trkpt>
      <trkpt lat="44.42958" lon="5.94791">
        <ele>766</ele>
        <time>2016-09-19T13:13:42Z</time>
      </trkpt>
      <trkpt lat="44.43063" lon="5.94825">
        <ele>756</ele>
        <time>2016-09-19T13:15:42Z</time>
      </trkpt>
      <trkpt lat="44.4312" lon="5.94881">
        <ele>746</ele>
        <time>2016-09-19T13:17:42Z</time>
      </trkpt>
      <trkpt lat="44.43117" lon="5.94939">
        <ele>744</ele>
        <time>2016-09-19T13:19:42Z</time>
      </trkpt>
      <trkpt lat="44.43155" lon="5.949">
        <ele>740</ele>
        <time>2016-09-19T13:21:42Z</time>
      </trkpt>
      <trkpt lat="44.43175" lon="5.94904">
        <ele>738</ele>
        <time>2016-09-19T13:23:42Z</time>
      </trkpt>
      <trkpt lat="44.43209" lon="5.94898">
        <ele>738</ele>
        <time>2016-09-19T13:25:42Z</time>
      </trkpt>
      <trkpt lat="44.43281" lon="5.9492">
        <ele>740</ele>
        <time>2016-09-19T13:27:42Z</time>
      </trkpt>
      <trkpt lat="44.43291" lon="5.94936">
        <ele>742</ele>
        <time>2016-09-19T13:29:42Z</time>
      </trkpt>
      <trkpt lat="44.4341" lon="5.94931">
        <ele>755</ele>
        <time>2016-09-19T13:31:42Z</time>
      </trkpt>
      <trkpt lat="44.43476" lon="5.94957">
        <ele>761</ele>
        <time>2016-09-19T13:33:42Z</time>
      </trkpt>
      <trkpt lat="44.43528" lon="5.94917">
        <ele>766</ele>
        <time>2016-09-19T13:35:42Z</time>
      </trkpt>
      <trkpt lat="44.43652" lon="5.94937">
        <ele>777</ele>
        <time>2016-09-19T13:37:42Z</time>
      </trkpt>
      <trkpt lat="44.43751" lon="5.95052">
        <ele>782</ele>
        <time>2016-09-19T13:39:42Z</time>
      </trkpt>
      <trkpt lat="44.43918" lon="5.95143">
        <ele>786</ele>
        <time>2016-09-19T13:41:42Z</time>
      </trkpt>
      <trkpt lat="44.4399" lon="5.95238">
        <ele>786</ele>
        <time>2016-09-19T13:43:42Z</time>
      </trkpt>
      <trkpt lat="44.43978" lon="5.95367">
        <ele>782</ele>
        <time>2016-09-19T13:45:42Z</time>
      </trkpt>
      <trkpt lat="44.43975" lon="5.9551">
        <ele>780</ele>
        <time>2016-09-19T13:47:42Z</time>
      </trkpt>
      <trkpt lat="44.44029" lon="5.95643">
        <ele>780</ele>
        <time>2016-09-19T13:49:42Z</time>
      </trkpt>
      <trkpt lat="44.44042" lon="5.95769">
        <ele>770</ele>
        <time>2016-09-19T13:51:42Z</time>
      </trkpt>
      <trkpt lat="44.44081" lon="5.95773">
        <ele>772</ele>
        <time>2016-09-19T13:53:42Z</time>
      </trkpt>
      <trkpt lat="44.4411" lon="5.9572">
        <ele>777</ele>
        <time>2016-09-19T13:55:42Z</time>
      </trkpt>
      <trkpt lat="44.44214" lon="5.95619">
        <ele>783</ele>
        <time>2016-09-19T13:57:42Z</time>
      </trkpt>
      <trkpt lat="44.44366" lon="5.95666">
        <ele>766</ele>
        <time>2016-09-19T13:59:42Z</time>
      </trkpt>
      <trkpt lat="44.44407" lon="5.95754">
        <ele>768</ele>
        <time>2016-09-19T14:01:42Z</time>
      </trkpt>
      <trkpt lat="44.44378" lon="5.95784">
        <ele>770</ele>
        <time>2016-09-19T14:03:42Z</time>
      </trkpt>
      <trkpt lat="44.44321" lon="5.95793">
        <ele>766</ele>
        <time>2016-09-19T14:05:42Z</time>
      </trkpt>
      <trkpt lat="44.44219" lon="5.95932">
        <ele>773</ele>
        <time>2016-09-19T14:07:42Z</time>
      </trkpt>
      <trkpt lat="44.44196" lon="5.96022">
        <ele>779</ele>
        <time>2016-09-19T14:09:42Z</time>
      </trkpt>
      <trkpt lat="44.44185" lon="5.96104">
        <ele>789</ele>
        <time>2016-09-19T14:11:42Z</time>
      </trkpt>
      <trkpt lat="44.44114" lon="5.96097">
        <ele>782</ele>
        <time>2016-09-19T14:13:42Z</time>
      </trkpt>
      <trkpt lat="44.4403" lon="5.9637">
        <ele>782</ele>
        <time>2016-09-19T14:15:42Z</time>
      </trkpt>
      <trkpt lat="44.44117" lon="5.96404">
        <ele>794</ele>
        <time>2016-09-19T14:17:42Z</time>
      </trkpt>
      <trkpt lat="44.44159" lon="5.9652">
        <ele>799</ele>
        <time>2016-09-19T14:19:42Z</time>
      </trkpt>
      <trkpt lat="44.44222" lon="5.96535">
        <ele>809</ele>
        <time>2016-09-19T14:21:42Z</time>
      </trkpt>
      <trkpt lat="44.44288" lon="5.96376">
        <ele>819</ele>
        <time>2016-09-19T14:23:42Z</time>
      </trkpt>
      <trkpt lat="44.4437" lon="5.96284">
        <ele>825</ele>
        <time>2016-09-19T14:25:42Z</time>
      </trkpt>
      <trkpt lat="44.44415" lon="5.96125">
        <ele>822</ele>
        <time>2016-09-19T14:27:42Z</time>
      </trkpt>
      <trkpt lat="44.44508" lon="5.96132">
        <ele>827</ele>
        <time>2016-09-19T14:29:42Z</time>
      </trkpt>
      <trkpt lat="44.44566" lon="5.96153">
        <ele>829</ele>
        <time>2016-09-19T14:31:42Z</time>
      </trkpt>
      <trkpt lat="44.44582" lon="5.9607">
        <ele>823</ele>
        <time>2016-09-19T14:33:42Z</time>
      </trkpt>
      <trkpt lat="44.44792" lon="5.96048">
        <ele>840</ele>
        <time>2016-09-19T14:35:42Z</time>
      </trkpt>
      <trkpt lat="44.44894" lon="5.96042">
        <ele>846</ele>
        <time>2016-09-19T14:37:42Z</time>
      </trkpt>
      <trkpt lat="44.44945" lon="5.96001">
        <ele>842</ele>
        <time>2016-09-19T14:39:42Z</time>
      </trkpt>
      <trkpt lat="44.45066" lon="5.96065">
        <ele>846</ele>
        <time>2016-09-19T14:41:42Z</time>
      </trkpt>
      <trkpt lat="44.45058" lon="5.96007">
        <ele>841</ele>
        <time>2016-09-19T14:43:42Z</time>
      </trkpt>
      <trkpt lat="44.45205" lon="5.95917">
        <ele>838</ele>
        <time>2016-09-19T14:45:42Z</time>
      </trkpt>
      <trkpt lat="44.45279" lon="5.96052">
        <ele>853</ele>
        <time>2016-09-19T14:47:42Z</time>
      </trkpt>
      <trkpt lat="44.45329" lon="5.96132">
        <ele>866</ele>
        <time>2016-09-19T14:49:42Z</time>
      </trkpt>
      <trkpt lat="44.45343" lon="5.96196">
        <ele>875</ele>
        <time>2016-09-19T14:51:42Z</time>
      </trkpt>
      <trkpt lat="44.45371" lon="5.96241">
        <ele>882</ele>
        <time>2016-09-19T14:53:42Z</time>
      </trkpt>
      <trkpt lat="44.45373" lon="5.96267">
        <ele>887</ele>
        <time>2016-09-19T14:55:42Z</time>
      </trkpt>
      <trkpt lat="44.45368" lon="5.96327">
        <ele>900</ele>
        <time>2016-09-19T14:57:42Z</time>
      </trkpt>
      <trkpt lat="44.45377" lon="5.96338">
        <ele>902</ele>
        <time>2016-09-19T14:59:42Z</time>
      </trkpt>
      <trkpt lat="44.45391" lon="5.9632">
        <ele>897</ele>
        <time>2016-09-19T15:01:42Z</time>
      </trkpt>
      <trkpt lat="44.45384" lon="5.96383">
        <ele>915</ele>
        <time>2016-09-19T15:03:42Z</time>
      </trkpt>
      <trkpt lat="44.45427" lon="5.96416">
        <ele>919</ele>
        <time>2016-09-19T15:05:42Z</time>
      </trkpt>
      <trkpt lat="44.45474" lon="5.96414">
        <ele>915</ele>
        <time>2016-09-19T15:07:42Z</time>
      </trkpt>
      <trkpt lat="44.4554" lon="5.96445">
        <ele>914</ele>
        <time>2016-09-19T15:09:42Z</time>
      </trkpt>
      <trkpt lat="44.4559" lon="5.96465">
        <ele>913</ele>
        <time>2016-09-19T15:11:42Z</time>
      </trkpt>
      <trkpt lat="44.45615" lon="5.9649">
        <ele>916</ele>
        <time>2016-09-19T15:13:42Z</time>
      </trkpt>
      <trkpt lat="44.45665" lon="5.965">
        <ele>909</ele>
        <time>2016-09-19T15:15:42Z</time>
      </trkpt>
      <trkpt lat="44.45705" lon="5.9661">
        <ele>928</ele>
        <time>2016-09-19T15:17:42Z</time>
      </trkpt>
      <trkpt lat="44.45734" lon="5.96677">
        <ele>938</ele>
        <time>2016-09-19T15:19:42Z</time>
      </trkpt>
      <trkpt lat="44.45741" lon="5.96702">
        <ele>943</ele>
        <time>2016-09-19T15:21:42Z</time>
      </trkpt>
      <trkpt lat="44.45771" lon="5.96699">
        <ele>941</ele>
        <time>2016-09-19T15:23:42Z</time>
      </trkpt>
      <trkpt lat="44.45805" lon="5.96732">
        <ele>952</ele>
        <time>2016-09-19T15:25:42Z</time>
      </trkpt>
      <trkpt lat="44.45851" lon="5.96774">
        <ele>973</ele>
        <time>2016-09-19T15:27:42Z</time>
      </trkpt>
      <trkpt lat="44.45885" lon="5.96778">
        <ele>983</ele>
        <time>2016-09-19T15:29:42Z</time>
      </trkpt>
      <trkpt lat="44.45916" lon="5.96786">
        <ele>993</ele>
        <time>2016-09-19T15:31:42Z</time>
      </trkpt>
      <trkpt lat="44.45943" lon="5.96762">
        <ele>998</ele>
        <time>2016-09-19T15:33:42Z</time>
      </trkpt>
      <trkpt lat="44.4596" lon="5.9675">
        <ele>1002</ele>
        <time>2016-09-19T15:35:42Z</time>
      </trkpt>
      <trkpt lat="44.45997" lon="5.96712">
        <ele>1008</ele>
        <time>2016-09-19T15:37:42Z</time>
      </trkpt>
      <trkpt lat="44.46025" lon="5.96713">
        <ele>1020</ele>
        <time>2016-09-19T15:39:42Z</time>
      </trkpt>
      <trkpt lat="44.46072" lon="5.96692">
        <ele>1035</ele>
        <time>2016-09-19T15:41:42Z</time>
      </trkpt>
      <trkpt lat="44.46091" lon="5.96701">
        <ele>1042</ele>
        <time>2016-09-19T15:43:42Z</time>
      </trkpt>
      <trkpt lat="44.46111" lon="5.96709">
        <ele>1043</ele>
        <time>2016-09-19T15:45:42Z</time>
      </trkpt>
      <trkpt lat="44.46101" lon="5.96788">
        <ele>1051</ele>
        <time>2016-09-19T15:47:42Z</time>
      </trkpt>
      <trkpt lat="44.46116" lon="5.96851">
        <ele>1045</ele>
        <time>2016-09-19T15:49:42Z</time>
      </trkpt>
      <trkpt lat="44.46198" lon="5.96745">
        <ele>1036</ele>
        <time>2016-09-19T15:51:42Z</time>
      </trkpt>
      <trkpt lat="44.46299" lon="5.96688">
        <ele>1026</ele>
        <time>2016-09-19T15:53:42Z</time>
      </trkpt>
      <trkpt lat="44.46453" lon="5.96698">
        <ele>994</ele>
        <time>2016-09-19T15:55:42Z</time>
      </trkpt>
      <trkpt lat="44.4653" lon="5.96649">
        <ele>995</ele>
        <time>2016-09-19T15:57:42Z</time>
      </trkpt>
      <trkpt lat="44.46688" lon="5.9674">
        <ele>988</ele>
        <time>2016-09-19T15:59:42Z</time>
      </trkpt>
      <trkpt lat="44.46973" lon="5.96834">
        <ele>994</ele>
        <time>2016-09-19T16:01:42Z</time>
      </trkpt>
      <trkpt lat="44.47154" lon="5.96753">
        <ele>1002</ele>
        <time>2016-09-19T16:03:42Z</time>
      </trkpt>
      <trkpt lat="44.47475" lon="5.96731">
        <ele>1006</ele>
        <time>2016-09-19T16:05:42Z</time>
      </trkpt>
      <trkpt lat="44.47549" lon="5.96633">
        <ele>1019</ele>
        <time>2016-09-19T16:07:42Z</time>
      </trkpt>
      <trkpt lat="44.47592" lon="5.96676">
        <ele>1019</ele>
        <time>2016-09-19T16:09:42Z</time>
      </trkpt>
      <trkpt lat="44.47549" lon="5.96787">
        <ele>1014</ele>
        <time>2016-09-19T16:11:42Z</time>
      </trkpt>
      <trkpt lat="44.47497" lon="5.96946">
        <ele>1010</ele>
        <time>2016-09-19T16:13:42Z</time>
      </trkpt>
      <trkpt lat="44.47616" lon="5.97075">
        <ele>1015</ele>
        <time>2016-09-19T16:15:42Z</time>
      </trkpt>
      <trkpt lat="44.47733" lon="5.97268">
        <ele>1018</ele>
        <time>2016-09-19T16:17:42Z</time>
      </trkpt>
      <trkpt lat="44.47791" lon="5.97311">
        <ele>1021</ele>
        <time>2016-09-19T16:19:42Z</time>
      </trkpt>
      <trkpt lat="44.47785" lon="5.97371">
        <ele>1019</ele>
        <time>2016-09-19T16:21:42Z</time>
      </trkpt>
      <trkpt lat="44.47733" lon="5.97405">
        <ele>1014</ele>
        <time>2016-09-19T16:23:42Z</time>
      </trkpt>
      <trkpt lat="44.47717" lon="5.97551">
        <ele>1011</ele>
        <time>2016-09-19T16:25:42Z</time>
      </trkpt>
      <trkpt lat="44.47916" lon="5.97834">
        <ele>1007</ele>
        <time>2016-09-19T16:27:42Z</time>
      </trkpt>
    </trkseg>
  </trk>
</gpx>